This is the latest recevied weather packets stored in our database for station/object K6HFP. If no packets are shown the sender has not sent any weather packets the latest 10 day(s).
| Time | Temp. | Humidity | Pressure | Rain* | Wind** | Luminosity | Snow |
|---|---|---|---|---|---|---|---|
| 1777667166 | 24.44° C | 49% | 1012.4 hPa | 0 mm | - | 845 W/m² | - |
| 1777666863 | 25° C | 48% | 1012.7 hPa | 0 mm | - | 956 W/m² | - |
| 1777666560 | 24.44° C | 49% | 1012.7 hPa | 0 mm | - | 977 W/m² | - |
| 1777666256 | 24.44° C | 48% | 1012.5 hPa | 0 mm | - | 861 W/m² | - |
| 1777665953 | 23.89° C | 52% | 1012.6 hPa | 0 mm | - | 955 W/m² | - |
| 1777665651 | 23.89° C | 52% | 1012.6 hPa | 0 mm | - | 652 W/m² | - |
| 1777665348 | 24.44° C | 48% | 1012.6 hPa | 0 mm | - | 903 W/m² | - |
| 1777665043 | 23.89° C | 53% | 1012.6 hPa | 0 mm | - | 892 W/m² | - |
| 1777664739 | 23.89° C | 50% | 1012.8 hPa | 0 mm | - | 934 W/m² | - |
| 1777664435 | 23.89° C | 53% | 1012.8 hPa | 0 mm | - | 917 W/m² | - |
| 1777664133 | 23.89° C | 49% | 1012.8 hPa | 0 mm | - | 965 W/m² | - |
| 1777663831 | 24.44° C | 49% | 1012.7 hPa | 0 mm | - | 971 W/m² | - |
| 1777663528 | 23.89° C | 51% | 1012.8 hPa | 0 mm | - | 888 W/m² | - |
| 1777663226 | 24.44° C | 51% | 1012.8 hPa | 0 mm | - | 979 W/m² | - |
| 1777662922 | 23.89° C | 52% | 1013 hPa | 0 mm | - | 977 W/m² | - |
| 1777662620 | 23.89° C | 51% | 1013.1 hPa | 0 mm | - | 949 W/m² | - |
| 1777662315 | 23.33° C | 52% | 1012.8 hPa | 0 mm | - | 942 W/m² | - |
| 1777662011 | 23.33° C | 49% | 1012.8 hPa | 0 mm | - | 931 W/m² | - |
| 1777661707 | 22.78° C | 51% | 1013 hPa | 0 mm | - | 865 W/m² | - |
| 1777661403 | 22.78° C | 52% | 1013 hPa | 0 mm | - | 858 W/m² | - |
| 1777661099 | 22.78° C | 53% | 1013.1 hPa | 0 mm | - | 896 W/m² | - |
| 1777660794 | 22.78° C | 52% | 1013.1 hPa | 0 mm | - | 916 W/m² | - |
| 1777660492 | 22.78° C | 52% | 1013.3 hPa | 0 mm | - | 873 W/m² | - |
| 1777660188 | 22.78° C | 53% | 1013.4 hPa | 0 mm | - | 891 W/m² | - |
| 1777659885 | 22.22° C | 56% | 1013.3 hPa | 0 mm | - | 876 W/m² | - |
* Rain latest hour (hover to see other rain measurements)
** Current wind speed in m/s (hover to see current wind gust speed)